Kinrikimaru — JL6545 — position and weather

sailwx.info

Track history (hours):
 
Tides and Currents Weather Stations Pressure Air Temp Water Temp Dewpoint Dewpoint Depression Visibility Wind Speed Wind Dir Waves Ship Positions

Kinrikimaru

Last reported at 2017-Jan-22 13:13 UTC. Time now 2017-Jan-24 11:23 UTC.
Position N 34°37' E 134°58'.

Length 76 m; draft 4 m.

Type: Cargo ship. MMSI: 431500615.

Date/timePositionNaut miles runAvg speedWind from/ knotsBaromVisibWave heightAir tempDewpointWater temp
2017-Jan-22 13:13N 34°37' E 134°58'6 8.5
2017-Jan-22 12:34N 34°35' E 135°04'1111.1
2017-Jan-22 11:33N 34°24' E 135°03'238 8.8
2017-Jan-21 08:33N 35°15' E 139°46'1010.0
2017-Jan-21 07:33N 35°23' E 139°40'0 0.0
2017-Jan-21 06:33N 35°23' E 139°40'0 0.0
2017-Jan-21 05:33N 35°23' E 139°40'0 0.0
2017-Jan-21 04:33N 35°23' E 139°40'0 0.0
2017-Jan-21 03:32N 35°23' E 139°40'0 0.0
2017-Jan-21 02:26N 35°23' E 139°40'0 0.0
2017-Jan-21 01:32N 35°23' E 139°40'0 0.0
2017-Jan-21 00:32N 35°23' E 139°40'0 0.0
2017-Jan-20 23:32N 35°23' E 139°40'0 0.0
2017-Jan-20 22:29N 35°23' E 139°40'0 0.1
2017-Jan-20 21:32N 35°23' E 139°40'0 0.0
2017-Jan-20 20:32N 35°23' E 139°40'0 0.1
2017-Jan-20 19:32N 35°23' E 139°40'0 0.0
2017-Jan-20 18:32N 35°23' E 139°40'0 0.0
2017-Jan-20 17:32N 35°23' E 139°40'0 0.0
2017-Jan-20 16:32N 35°23' E 139°40'0 0.0
2017-Jan-20 15:32N 35°23' E 139°40'0 0.0
2017-Jan-20 14:32N 35°23' E 139°40'0 0.0
2017-Jan-20 13:32N 35°23' E 139°40'0 0.0
2017-Jan-20 12:32N 35°23' E 139°40'0 0.0
2017-Jan-20 11:29N 35°23' E 139°40'0 0.0
2017-Jan-20 10:32N 35°23' E 139°40'0 0.0
2017-Jan-20 09:32N 35°23' E 139°40'0 0.0
2017-Jan-20 08:32N 35°23' E 139°40'0 0.0
2017-Jan-20 07:32N 35°23' E 139°40'0 0.0
2017-Jan-20 06:32N 35°23' E 139°40'1 1.1
2017-Jan-20 05:33N 35°23' E 139°41'7 6.6
2017-Jan-20 04:32N 35°30' E 139°43'0 0.0
2017-Jan-20 03:32N 35°30' E 139°43'0 0.0
2017-Jan-20 02:32N 35°30' E 139°43'0 0.0
2017-Jan-20 01:32N 35°30' E 139°43'0 0.0
2017-Jan-20 00:32N 35°30' E 139°43'0 0.0
2017-Jan-19 23:32N 35°30' E 139°43'4 3.8
2017-Jan-19 22:34N 35°30' E 139°48'1 1.4
2017-Jan-19 21:31N 35°28' E 139°48'0 0.0
2017-Jan-19 20:31N 35°28' E 139°48'0 0.0
2017-Jan-19 19:31N 35°28' E 139°48'0 0.0
2017-Jan-19 18:31N 35°28' E 139°48'0 0.0
2017-Jan-19 17:31N 35°28' E 139°48'0 0.0
2017-Jan-19 16:31N 35°28' E 139°48'0 0.0
2017-Jan-19 15:31N 35°28' E 139°48'0 0.0
2017-Jan-19 14:31N 35°28' E 139°48'0 0.0
2017-Jan-19 13:31N 35°28' E 139°48'0 0.0
2017-Jan-19 12:31N 35°28' E 139°48'0 0.0
2017-Jan-19 11:33N 35°28' E 139°48'9 8.9
2017-Jan-19 10:33N 35°20' E 139°44'231 8.9
2017-Jan-18 08:33N 34°27' E 135°10'1312.2
2017-Jan-18 07:29N 34°35' E 135°22'3 3.0
2017-Jan-18 06:28N 34°35' E 135°26'0 0.0
2017-Jan-18 05:16N 34°35' E 135°26'0 0.0
2017-Jan-18 03:10N 34°35' E 135°26'0 0.0
2017-Jan-18 02:22N 34°35' E 135°26'0 0.5
2017-Jan-18 01:32N 34°35' E 135°25'1111.1
2017-Jan-18 00:33N 34°35' E 135°12'  
Track history (hours):
 
Tides and Currents Weather Stations Pressure Air Temp Water Temp Dewpoint Dewpoint Depression Visibility Wind Speed Wind Dir Waves Ship Positions

Kinrikimaru

Last reported at 2017-Jan-22 13:13 UTC. Time now 2017-Jan-24 11:23 UTC.
Position N 34°37' E 134°58'.

Length 76 m; draft 4 m.

Type: Cargo ship. MMSI: 431500615.

Date/timePositionNaut miles runAvg speedWind from/ knotsBaromVisibWave heightAir tempDewpointWater temp
2017-Jan-22 13:13N 34°37' E 134°58'6 8.5
2017-Jan-22 12:34N 34°35' E 135°04'1111.1
2017-Jan-22 11:33N 34°24' E 135°03'238 8.8
2017-Jan-21 08:33N 35°15' E 139°46'1010.0
2017-Jan-21 07:33N 35°23' E 139°40'0 0.0
2017-Jan-21 06:33N 35°23' E 139°40'0 0.0
2017-Jan-21 05:33N 35°23' E 139°40'0 0.0
2017-Jan-21 04:33N 35°23' E 139°40'0 0.0
2017-Jan-21 03:32N 35°23' E 139°40'0 0.0
2017-Jan-21 02:26N 35°23' E 139°40'0 0.0
2017-Jan-21 01:32N 35°23' E 139°40'0 0.0
2017-Jan-21 00:32N 35°23' E 139°40'0 0.0
2017-Jan-20 23:32N 35°23' E 139°40'0 0.0
2017-Jan-20 22:29N 35°23' E 139°40'0 0.1
2017-Jan-20 21:32N 35°23' E 139°40'0 0.0
2017-Jan-20 20:32N 35°23' E 139°40'0 0.1
2017-Jan-20 19:32N 35°23' E 139°40'0 0.0
2017-Jan-20 18:32N 35°23' E 139°40'0 0.0
2017-Jan-20 17:32N 35°23' E 139°40'0 0.0
2017-Jan-20 16:32N 35°23' E 139°40'0 0.0
2017-Jan-20 15:32N 35°23' E 139°40'0 0.0
2017-Jan-20 14:32N 35°23' E 139°40'0 0.0
2017-Jan-20 13:32N 35°23' E 139°40'0 0.0
2017-Jan-20 12:32N 35°23' E 139°40'0 0.0
2017-Jan-20 11:29N 35°23' E 139°40'0 0.0
2017-Jan-20 10:32N 35°23' E 139°40'0 0.0
2017-Jan-20 09:32N 35°23' E 139°40'0 0.0
2017-Jan-20 08:32N 35°23' E 139°40'0 0.0
2017-Jan-20 07:32N 35°23' E 139°40'0 0.0
2017-Jan-20 06:32N 35°23' E 139°40'1 1.1
2017-Jan-20 05:33N 35°23' E 139°41'7 6.6
2017-Jan-20 04:32N 35°30' E 139°43'0 0.0
2017-Jan-20 03:32N 35°30' E 139°43'0 0.0
2017-Jan-20 02:32N 35°30' E 139°43'0 0.0
2017-Jan-20 01:32N 35°30' E 139°43'0 0.0
2017-Jan-20 00:32N 35°30' E 139°43'0 0.0
2017-Jan-19 23:32N 35°30' E 139°43'4 3.8
2017-Jan-19 22:34N 35°30' E 139°48'1 1.4
2017-Jan-19 21:31N 35°28' E 139°48'0 0.0
2017-Jan-19 20:31N 35°28' E 139°48'0 0.0
2017-Jan-19 19:31N 35°28' E 139°48'0 0.0
2017-Jan-19 18:31N 35°28' E 139°48'0 0.0
2017-Jan-19 17:31N 35°28' E 139°48'0 0.0
2017-Jan-19 16:31N 35°28' E 139°48'0 0.0
2017-Jan-19 15:31N 35°28' E 139°48'0 0.0
2017-Jan-19 14:31N 35°28' E 139°48'0 0.0
2017-Jan-19 13:31N 35°28' E 139°48'0 0.0
2017-Jan-19 12:31N 35°28' E 139°48'0 0.0
2017-Jan-19 11:33N 35°28' E 139°48'9 8.9
2017-Jan-19 10:33N 35°20' E 139°44'231 8.9
2017-Jan-18 08:33N 34°27' E 135°10'1312.2
2017-Jan-18 07:29N 34°35' E 135°22'3 3.0
2017-Jan-18 06:28N 34°35' E 135°26'0 0.0
2017-Jan-18 05:16N 34°35' E 135°26'0 0.0
2017-Jan-18 03:10N 34°35' E 135°26'0 0.0
2017-Jan-18 02:22N 34°35' E 135°26'0 0.5
2017-Jan-18 01:32N 34°35' E 135°25'1111.1
2017-Jan-18 00:33N 34°35' E 135°12'  

Dump ship's entire track history